sensor_id;sensor_type;location;lat;lon;timestamp;P1;durP1;ratioP1;P2;durP2;ratioP2
65035;SDS011;51603;49.300;8.880;2023-08-24T00:00:30;9.23;;;5.97;;
65035;SDS011;51603;49.300;8.880;2023-08-24T00:02:57;7.37;;;4.80;;
65035;SDS011;51603;49.300;8.880;2023-08-24T00:05:23;5.63;;;5.07;;
65035;SDS011;51603;49.300;8.880;2023-08-24T00:07:48;6.13;;;5.63;;
65035;SDS011;51603;49.300;8.880;2023-08-24T00:10:14;5.80;;;5.30;;
65035;SDS011;51603;49.300;8.880;2023-08-24T00:12:40;5.73;;;4.97;;
65035;SDS011;51603;49.300;8.880;2023-08-24T00:15:07;5.20;;;4.70;;
65035;SDS011;51603;49.300;8.880;2023-08-24T00:17:33;5.97;;;5.37;;
65035;SDS011;51603;49.300;8.880;2023-08-24T00:19:59;6.80;;;6.20;;
65035;SDS011;51603;49.300;8.880;2023-08-24T00:22:26;5.90;;;5.20;;
65035;SDS011;51603;49.300;8.880;2023-08-24T00:24:51;6.40;;;5.00;;
65035;SDS011;51603;49.300;8.880;2023-08-24T00:27:17;5.57;;;5.13;;
65035;SDS011;51603;49.300;8.880;2023-08-24T00:29:42;7.07;;;5.30;;
65035;SDS011;51603;49.300;8.880;2023-08-24T00:32:08;7.00;;;5.30;;
65035;SDS011;51603;49.300;8.880;2023-08-24T00:34:33;5.90;;;5.40;;
65035;SDS011;51603;49.300;8.880;2023-08-24T00:36:59;6.03;;;5.43;;
65035;SDS011;51603;49.300;8.880;2023-08-24T00:39:25;7.77;;;5.50;;
65035;SDS011;51603;49.300;8.880;2023-08-24T00:41:52;5.77;;;5.23;;
65035;SDS011;51603;49.300;8.880;2023-08-24T00:44:17;7.90;;;6.70;;
65035;SDS011;51603;49.300;8.880;2023-08-24T00:46:43;6.70;;;5.50;;
65035;SDS011;51603;49.300;8.880;2023-08-24T00:49:08;5.70;;;5.20;;
65035;SDS011;51603;49.300;8.880;2023-08-24T00:51:34;6.30;;;5.70;;
65035;SDS011;51603;49.300;8.880;2023-08-24T00:53:59;7.60;;;6.07;;
65035;SDS011;51603;49.300;8.880;2023-08-24T00:56:25;7.53;;;6.37;;
65035;SDS011;51603;49.300;8.880;2023-08-24T00:58:51;6.00;;;5.53;;
65035;SDS011;51603;49.300;8.880;2023-08-24T01:01:18;6.70;;;5.57;;
65035;SDS011;51603;49.300;8.880;2023-08-24T01:03:44;6.50;;;5.63;;
65035;SDS011;51603;49.300;8.880;2023-08-24T01:06:10;6.47;;;5.87;;
65035;SDS011;51603;49.300;8.880;2023-08-24T01:08:36;5.43;;;5.03;;
65035;SDS011;51603;49.300;8.880;2023-08-24T01:11:03;5.67;;;5.27;;
65035;SDS011;51603;49.300;8.880;2023-08-24T01:16:25;6.57;;;5.90;;
65035;SDS011;51603;49.300;8.880;2023-08-24T01:18:59;5.87;;;5.20;;
65035;SDS011;51603;49.300;8.880;2023-08-24T01:21:26;6.23;;;5.63;;
65035;SDS011;51603;49.300;8.880;2023-08-24T01:26:19;6.03;;;5.53;;
65035;SDS011;51603;49.300;8.880;2023-08-24T01:28:45;6.83;;;6.23;;
65035;SDS011;51603;49.300;8.880;2023-08-24T01:31:15;7.93;;;5.90;;
65035;SDS011;51603;49.300;8.880;2023-08-24T01:33:42;6.33;;;5.83;;
65035;SDS011;51603;49.300;8.880;2023-08-24T01:36:08;6.47;;;5.70;;
65035;SDS011;51603;49.300;8.880;2023-08-24T01:38:36;7.30;;;6.60;;
65035;SDS011;51603;49.300;8.880;2023-08-24T01:43:39;6.37;;;5.87;;
65035;SDS011;51603;49.300;8.880;2023-08-24T01:46:05;5.70;;;5.10;;
65035;SDS011;51603;49.300;8.880;2023-08-24T01:48:32;6.87;;;6.27;;
65035;SDS011;51603;49.300;8.880;2023-08-24T01:50:59;6.17;;;5.57;;
65035;SDS011;51603;49.300;8.880;2023-08-24T01:53:27;7.37;;;5.63;;
65035;SDS011;51603;49.300;8.880;2023-08-24T01:55:54;7.60;;;6.07;;
65035;SDS011;51603;49.300;8.880;2023-08-24T01:58:20;5.97;;;5.47;;
65035;SDS011;51603;49.300;8.880;2023-08-24T02:00:45;8.43;;;6.10;;
65035;SDS011;51603;49.300;8.880;2023-08-24T02:03:11;7.93;;;6.47;;
65035;SDS011;51603;49.300;8.880;2023-08-24T02:05:36;6.60;;;6.00;;
65035;SDS011;51603;49.300;8.880;2023-08-24T02:08:02;5.90;;;5.50;;
65035;SDS011;51603;49.300;8.880;2023-08-24T02:10:28;5.90;;;5.50;;
65035;SDS011;51603;49.300;8.880;2023-08-24T02:12:53;7.50;;;6.80;;
65035;SDS011;51603;49.300;8.880;2023-08-24T02:15:19;7.07;;;6.47;;
65035;SDS011;51603;49.300;8.880;2023-08-24T02:17:44;6.33;;;5.83;;
65035;SDS011;51603;49.300;8.880;2023-08-24T02:20:10;6.37;;;5.53;;
65035;SDS011;51603;49.300;8.880;2023-08-24T02:22:39;8.60;;;5.87;;
65035;SDS011;51603;49.300;8.880;2023-08-24T02:25:04;7.40;;;5.80;;
65035;SDS011;51603;49.300;8.880;2023-08-24T02:27:31;6.77;;;6.17;;
65035;SDS011;51603;49.300;8.880;2023-08-24T02:29:57;7.23;;;6.53;;
65035;SDS011;51603;49.300;8.880;2023-08-24T02:32:22;7.13;;;6.43;;
65035;SDS011;51603;49.300;8.880;2023-08-24T02:34:48;6.83;;;6.00;;
65035;SDS011;51603;49.300;8.880;2023-08-24T02:37:13;6.43;;;5.93;;
65035;SDS011;51603;49.300;8.880;2023-08-24T02:39:39;6.63;;;6.03;;
65035;SDS011;51603;49.300;8.880;2023-08-24T02:42:04;7.97;;;6.40;;
65035;SDS011;51603;49.300;8.880;2023-08-24T02:44:30;6.53;;;6.03;;
65035;SDS011;51603;49.300;8.880;2023-08-24T02:46:56;6.70;;;6.10;;
65035;SDS011;51603;49.300;8.880;2023-08-24T02:49:22;6.77;;;6.23;;
65035;SDS011;51603;49.300;8.880;2023-08-24T02:51:48;7.23;;;6.53;;
65035;SDS011;51603;49.300;8.880;2023-08-24T02:54:14;6.47;;;5.97;;
65035;SDS011;51603;49.300;8.880;2023-08-24T02:56:39;6.50;;;6.00;;
65035;SDS011;51603;49.300;8.880;2023-08-24T02:59:05;7.97;;;6.27;;
65035;SDS011;51603;49.300;8.880;2023-08-24T03:01:31;6.67;;;6.17;;
65035;SDS011;51603;49.300;8.880;2023-08-24T03:03:56;6.00;;;5.50;;
65035;SDS011;51603;49.300;8.880;2023-08-24T03:06:22;7.10;;;6.50;;
65035;SDS011;51603;49.300;8.880;2023-08-24T03:08:49;7.03;;;6.47;;
65035;SDS011;51603;49.300;8.880;2023-08-24T03:11:14;6.73;;;6.13;;
65035;SDS011;51603;49.300;8.880;2023-08-24T03:13:40;6.80;;;6.20;;
65035;SDS011;51603;49.300;8.880;2023-08-24T03:16:05;6.80;;;6.20;;
65035;SDS011;51603;49.300;8.880;2023-08-24T03:18:32;6.67;;;6.07;;
65035;SDS011;51603;49.300;8.880;2023-08-24T03:20:58;6.80;;;6.20;;
65035;SDS011;51603;49.300;8.880;2023-08-24T03:23:23;6.37;;;5.77;;
65035;SDS011;51603;49.300;8.880;2023-08-24T03:25:49;6.43;;;5.83;;
65035;SDS011;51603;49.300;8.880;2023-08-24T03:28:14;7.10;;;6.50;;
65035;SDS011;51603;49.300;8.880;2023-08-24T03:34:02;7.53;;;6.30;;
65035;SDS011;51603;49.300;8.880;2023-08-24T03:36:29;7.93;;;6.97;;
65035;SDS011;51603;49.300;8.880;2023-08-24T03:38:54;6.97;;;6.47;;
65035;SDS011;51603;49.300;8.880;2023-08-24T03:41:20;7.60;;;6.90;;
65035;SDS011;51603;49.300;8.880;2023-08-24T03:47:07;7.90;;;6.30;;
65035;SDS011;51603;49.300;8.880;2023-08-24T03:49:33;7.30;;;6.67;;
65035;SDS011;51603;49.300;8.880;2023-08-24T03:51:59;8.67;;;7.87;;
65035;SDS011;51603;49.300;8.880;2023-08-24T03:54:24;8.40;;;7.50;;
65035;SDS011;51603;49.300;8.880;2023-08-24T03:56:50;7.70;;;7.03;;
65035;SDS011;51603;49.300;8.880;2023-08-24T03:59:16;7.30;;;6.60;;
65035;SDS011;51603;49.300;8.880;2023-08-24T04:01:41;6.60;;;6.10;;
65035;SDS011;51603;49.300;8.880;2023-08-24T04:04:07;6.40;;;5.70;;
65035;SDS011;51603;49.300;8.880;2023-08-24T04:06:32;5.70;;;5.30;;
65035;SDS011;51603;49.300;8.880;2023-08-24T04:08:58;6.30;;;5.67;;
65035;SDS011;51603;49.300;8.880;2023-08-24T04:11:23;7.37;;;6.10;;
65035;SDS011;51603;49.300;8.880;2023-08-24T04:13:49;7.50;;;6.13;;
65035;SDS011;51603;49.300;8.880;2023-08-24T04:16:14;5.80;;;5.30;;
65035;SDS011;51603;49.300;8.880;2023-08-24T04:18:40;7.20;;;5.73;;
65035;SDS011;51603;49.300;8.880;2023-08-24T04:21:05;5.30;;;4.80;;
65035;SDS011;51603;49.300;8.880;2023-08-24T04:23:31;6.07;;;5.40;;
65035;SDS011;51603;49.300;8.880;2023-08-24T04:25:57;6.10;;;5.50;;
65035;SDS011;51603;49.300;8.880;2023-08-24T04:28:22;5.90;;;5.40;;
65035;SDS011;51603;49.300;8.880;2023-08-24T04:30:52;6.53;;;5.93;;
65035;SDS011;51603;49.300;8.880;2023-08-24T04:33:18;5.87;;;5.37;;
65035;SDS011;51603;49.300;8.880;2023-08-24T04:35:47;5.60;;;4.80;;
65035;SDS011;51603;49.300;8.880;2023-08-24T04:38:14;8.90;;;5.87;;
65035;SDS011;51603;49.300;8.880;2023-08-24T04:40:53;5.77;;;5.20;;
65035;SDS011;51603;49.300;8.880;2023-08-24T04:43:20;6.17;;;5.57;;
65035;SDS011;51603;49.300;8.880;2023-08-24T04:45:47;5.73;;;4.77;;
65035;SDS011;51603;49.300;8.880;2023-08-24T04:48:14;5.30;;;4.50;;
65035;SDS011;51603;49.300;8.880;2023-08-24T04:50:41;6.77;;;4.17;;
65035;SDS011;51603;49.300;8.880;2023-08-24T04:53:07;5.30;;;4.90;;
65035;SDS011;51603;49.300;8.880;2023-08-24T04:55:33;6.03;;;5.43;;
65035;SDS011;51603;49.300;8.880;2023-08-24T04:57:58;5.03;;;4.63;;
65035;SDS011;51603;49.300;8.880;2023-08-24T05:00:24;5.50;;;5.00;;
65035;SDS011;51603;49.300;8.880;2023-08-24T05:02:49;5.23;;;4.83;;
65035;SDS011;51603;49.300;8.880;2023-08-24T05:05:15;5.67;;;5.10;;
65035;SDS011;51603;49.300;8.880;2023-08-24T05:07:40;6.20;;;5.60;;
65035;SDS011;51603;49.300;8.880;2023-08-24T05:10:06;5.77;;;5.27;;
65035;SDS011;51603;49.300;8.880;2023-08-24T05:12:32;7.03;;;5.17;;
65035;SDS011;51603;49.300;8.880;2023-08-24T05:15:02;9.37;;;5.70;;
65035;SDS011;51603;49.300;8.880;2023-08-24T05:17:28;5.60;;;5.20;;
65035;SDS011;51603;49.300;8.880;2023-08-24T05:19:53;5.10;;;4.60;;
65035;SDS011;51603;49.300;8.880;2023-08-24T05:22:19;6.70;;;6.10;;
65035;SDS011;51603;49.300;8.880;2023-08-24T05:24:45;6.70;;;5.17;;
65035;SDS011;51603;49.300;8.880;2023-08-24T05:27:10;6.77;;;5.20;;
65035;SDS011;51603;49.300;8.880;2023-08-24T05:29:36;6.83;;;4.70;;
65035;SDS011;51603;49.300;8.880;2023-08-24T05:32:02;6.40;;;5.00;;
65035;SDS011;51603;49.300;8.880;2023-08-24T05:34:27;5.30;;;4.87;;
65035;SDS011;51603;49.300;8.880;2023-08-24T05:36:53;5.73;;;5.33;;
65035;SDS011;51603;49.300;8.880;2023-08-24T05:39:19;5.27;;;4.87;;
65035;SDS011;51603;49.300;8.880;2023-08-24T05:41:44;5.50;;;5.00;;
65035;SDS011;51603;49.300;8.880;2023-08-24T05:44:10;5.30;;;4.80;;
65035;SDS011;51603;49.300;8.880;2023-08-24T05:46:35;4.70;;;4.30;;
65035;SDS011;51603;49.300;8.880;2023-08-24T05:49:01;6.03;;;5.50;;
65035;SDS011;51603;49.300;8.880;2023-08-24T05:51:27;5.03;;;4.60;;
65035;SDS011;51603;49.300;8.880;2023-08-24T05:53:53;5.53;;;4.80;;
65035;SDS011;51603;49.300;8.880;2023-08-24T05:56:21;4.20;;;3.90;;
65035;SDS011;51603;49.300;8.880;2023-08-24T05:58:47;5.30;;;4.20;;
65035;SDS011;51603;49.300;8.880;2023-08-24T06:01:13;4.70;;;4.20;;
65035;SDS011;51603;49.300;8.880;2023-08-24T06:03:39;7.23;;;4.23;;
65035;SDS011;51603;49.300;8.880;2023-08-24T06:06:04;5.00;;;3.70;;
65035;SDS011;51603;49.300;8.880;2023-08-24T06:08:30;7.00;;;3.70;;
65035;SDS011;51603;49.300;8.880;2023-08-24T06:10:57;5.70;;;3.70;;
65035;SDS011;51603;49.300;8.880;2023-08-24T06:13:23;4.63;;;2.73;;
65035;SDS011;51603;49.300;8.880;2023-08-24T06:15:48;5.70;;;3.30;;
65035;SDS011;51603;49.300;8.880;2023-08-24T06:18:14;3.80;;;2.90;;
65035;SDS011;51603;49.300;8.880;2023-08-24T06:20:40;6.10;;;3.43;;
65035;SDS011;51603;49.300;8.880;2023-08-24T06:23:06;4.80;;;3.80;;
65035;SDS011;51603;49.300;8.880;2023-08-24T06:25:32;4.30;;;3.23;;
65035;SDS011;51603;49.300;8.880;2023-08-24T06:27:58;3.80;;;3.50;;
65035;SDS011;51603;49.300;8.880;2023-08-24T06:30:24;3.83;;;3.53;;
65035;SDS011;51603;49.300;8.880;2023-08-24T06:32:50;5.37;;;4.07;;
65035;SDS011;51603;49.300;8.880;2023-08-24T06:35:16;4.23;;;3.83;;
65035;SDS011;51603;49.300;8.880;2023-08-24T06:37:42;3.47;;;3.13;;
65035;SDS011;51603;49.300;8.880;2023-08-24T06:40:08;5.07;;;3.57;;
65035;SDS011;51603;49.300;8.880;2023-08-24T06:42:34;3.57;;;3.27;;
65035;SDS011;51603;49.300;8.880;2023-08-24T06:44:59;4.83;;;3.70;;
65035;SDS011;51603;49.300;8.880;2023-08-24T06:47:25;5.67;;;3.47;;
65035;SDS011;51603;49.300;8.880;2023-08-24T06:49:51;5.23;;;4.17;;
65035;SDS011;51603;49.300;8.880;2023-08-24T06:52:16;3.70;;;3.40;;
65035;SDS011;51603;49.300;8.880;2023-08-24T06:54:42;4.43;;;4.03;;
65035;SDS011;51603;49.300;8.880;2023-08-24T06:57:07;4.50;;;4.10;;
65035;SDS011;51603;49.300;8.880;2023-08-24T06:59:33;6.00;;;3.63;;
65035;SDS011;51603;49.300;8.880;2023-08-24T07:01:59;4.10;;;3.80;;
65035;SDS011;51603;49.300;8.880;2023-08-24T07:04:25;3.33;;;3.13;;
65035;SDS011;51603;49.300;8.880;2023-08-24T07:06:51;5.10;;;3.80;;
65035;SDS011;51603;49.300;8.880;2023-08-24T07:09:17;3.13;;;2.93;;
65035;SDS011;51603;49.300;8.880;2023-08-24T07:11:43;7.20;;;3.87;;
65035;SDS011;51603;49.300;8.880;2023-08-24T07:14:09;5.10;;;3.80;;
65035;SDS011;51603;49.300;8.880;2023-08-24T07:16:34;4.10;;;3.10;;
65035;SDS011;51603;49.300;8.880;2023-08-24T07:19:00;4.60;;;3.57;;
65035;SDS011;51603;49.300;8.880;2023-08-24T07:21:25;5.37;;;3.50;;
65035;SDS011;51603;49.300;8.880;2023-08-24T07:23:51;7.23;;;3.40;;
65035;SDS011;51603;49.300;8.880;2023-08-24T07:26:16;5.17;;;3.17;;
65035;SDS011;51603;49.300;8.880;2023-08-24T07:28:42;3.80;;;3.43;;
65035;SDS011;51603;49.300;8.880;2023-08-24T07:31:11;6.30;;;3.83;;
65035;SDS011;51603;49.300;8.880;2023-08-24T07:33:37;4.00;;;3.07;;
65035;SDS011;51603;49.300;8.880;2023-08-24T07:36:04;5.50;;;3.23;;
65035;SDS011;51603;49.300;8.880;2023-08-24T07:38:30;4.03;;;3.30;;
65035;SDS011;51603;49.300;8.880;2023-08-24T07:40:56;4.83;;;3.10;;
65035;SDS011;51603;49.300;8.880;2023-08-24T07:43:23;4.00;;;3.17;;
65035;SDS011;51603;49.300;8.880;2023-08-24T07:45:49;4.83;;;3.50;;
65035;SDS011;51603;49.300;8.880;2023-08-24T07:48:14;4.80;;;3.07;;
65035;SDS011;51603;49.300;8.880;2023-08-24T07:50:40;4.20;;;3.77;;
65035;SDS011;51603;49.300;8.880;2023-08-24T07:53:06;4.83;;;3.63;;
65035;SDS011;51603;49.300;8.880;2023-08-24T07:55:31;4.23;;;3.83;;
65035;SDS011;51603;49.300;8.880;2023-08-24T07:57:57;4.40;;;3.80;;
65035;SDS011;51603;49.300;8.880;2023-08-24T08:00:22;5.37;;;3.50;;
65035;SDS011;51603;49.300;8.880;2023-08-24T08:02:49;6.73;;;3.57;;
65035;SDS011;51603;49.300;8.880;2023-08-24T08:05:16;3.93;;;3.53;;
65035;SDS011;51603;49.300;8.880;2023-08-24T08:07:42;4.80;;;3.40;;
65035;SDS011;51603;49.300;8.880;2023-08-24T08:10:07;3.80;;;3.50;;
65035;SDS011;51603;49.300;8.880;2023-08-24T08:12:34;4.83;;;3.30;;
65035;SDS011;51603;49.300;8.880;2023-08-24T08:15:00;3.90;;;2.70;;
65035;SDS011;51603;49.300;8.880;2023-08-24T08:17:26;2.60;;;2.40;;
65035;SDS011;51603;49.300;8.880;2023-08-24T08:19:56;8.10;;;3.00;;
65035;SDS011;51603;49.300;8.880;2023-08-24T08:22:22;6.47;;;3.10;;
65035;SDS011;51603;49.300;8.880;2023-08-24T08:24:48;3.90;;;2.93;;
65035;SDS011;51603;49.300;8.880;2023-08-24T08:27:14;6.80;;;2.93;;
65035;SDS011;51603;49.300;8.880;2023-08-24T08:29:40;4.10;;;3.07;;
65035;SDS011;51603;49.300;8.880;2023-08-24T08:32:05;3.60;;;2.70;;
65035;SDS011;51603;49.300;8.880;2023-08-24T08:34:32;3.30;;;3.00;;
65035;SDS011;51603;49.300;8.880;2023-08-24T08:36:58;4.23;;;2.90;;
65035;SDS011;51603;49.300;8.880;2023-08-24T08:39:23;5.40;;;2.70;;
65035;SDS011;51603;49.300;8.880;2023-08-24T08:41:49;4.40;;;3.00;;
65035;SDS011;51603;49.300;8.880;2023-08-24T08:44:15;2.90;;;2.70;;
65035;SDS011;51603;49.300;8.880;2023-08-24T08:46:41;3.80;;;3.30;;
65035;SDS011;51603;49.300;8.880;2023-08-24T08:49:07;3.43;;;2.60;;
65035;SDS011;51603;49.300;8.880;2023-08-24T08:51:35;2.63;;;2.40;;
65035;SDS011;51603;49.300;8.880;2023-08-24T08:54:01;3.50;;;2.90;;
65035;SDS011;51603;49.300;8.880;2023-08-24T08:56:28;4.37;;;3.17;;
65035;SDS011;51603;49.300;8.880;2023-08-24T08:58:54;4.80;;;3.00;;
65035;SDS011;51603;49.300;8.880;2023-08-24T09:01:21;4.67;;;2.77;;
65035;SDS011;51603;49.300;8.880;2023-08-24T09:03:48;5.30;;;2.93;;
65035;SDS011;51603;49.300;8.880;2023-08-24T09:06:14;6.00;;;3.33;;
65035;SDS011;51603;49.300;8.880;2023-08-24T09:08:39;6.13;;;2.67;;
65035;SDS011;51603;49.300;8.880;2023-08-24T09:11:05;4.70;;;3.03;;
65035;SDS011;51603;49.300;8.880;2023-08-24T09:13:33;3.27;;;2.90;;
65035;SDS011;51603;49.300;8.880;2023-08-24T09:16:02;4.37;;;3.20;;
65035;SDS011;51603;49.300;8.880;2023-08-24T09:18:38;7.10;;;3.20;;
65035;SDS011;51603;49.300;8.880;2023-08-24T09:21:08;9.17;;;3.27;;
65035;SDS011;51603;49.300;8.880;2023-08-24T09:23:34;7.10;;;2.63;;
65035;SDS011;51603;49.300;8.880;2023-08-24T09:26:00;8.20;;;2.77;;
65035;SDS011;51603;49.300;8.880;2023-08-24T09:28:25;4.80;;;2.97;;
65035;SDS011;51603;49.300;8.880;2023-08-24T09:30:54;5.50;;;3.40;;
65035;SDS011;51603;49.300;8.880;2023-08-24T09:33:20;5.27;;;3.00;;
65035;SDS011;51603;49.300;8.880;2023-08-24T09:35:54;4.73;;;2.80;;
65035;SDS011;51603;49.300;8.880;2023-08-24T09:38:27;5.90;;;2.97;;
65035;SDS011;51603;49.300;8.880;2023-08-24T09:40:54;3.37;;;3.07;;
65035;SDS011;51603;49.300;8.880;2023-08-24T09:43:20;4.03;;;2.80;;
65035;SDS011;51603;49.300;8.880;2023-08-24T09:45:53;4.40;;;3.00;;
65035;SDS011;51603;49.300;8.880;2023-08-24T09:48:20;3.77;;;3.40;;
65035;SDS011;51603;49.300;8.880;2023-08-24T09:50:47;5.10;;;3.57;;
65035;SDS011;51603;49.300;8.880;2023-08-24T09:53:19;4.50;;;3.03;;
65035;SDS011;51603;49.300;8.880;2023-08-24T09:55:48;3.87;;;3.10;;
65035;SDS011;51603;49.300;8.880;2023-08-24T09:58:18;6.50;;;3.37;;
65035;SDS011;51603;49.300;8.880;2023-08-24T10:00:45;4.73;;;2.90;;
65035;SDS011;51603;49.300;8.880;2023-08-24T10:03:12;3.80;;;3.40;;
65035;SDS011;51603;49.300;8.880;2023-08-24T10:05:52;4.63;;;3.20;;
65035;SDS011;51603;49.300;8.880;2023-08-24T10:08:24;5.37;;;3.57;;
65035;SDS011;51603;49.300;8.880;2023-08-24T10:10:53;3.20;;;2.90;;
65035;SDS011;51603;49.300;8.880;2023-08-24T10:13:23;8.93;;;3.07;;
65035;SDS011;51603;49.300;8.880;2023-08-24T10:16:00;6.33;;;3.60;;
65035;SDS011;51603;49.300;8.880;2023-08-24T10:18:27;5.73;;;3.60;;
65035;SDS011;51603;49.300;8.880;2023-08-24T10:20:53;3.70;;;2.57;;
65035;SDS011;51603;49.300;8.880;2023-08-24T10:23:21;4.70;;;3.00;;
65035;SDS011;51603;49.300;8.880;2023-08-24T10:25:47;3.53;;;3.07;;
65035;SDS011;51603;49.300;8.880;2023-08-24T10:28:16;8.70;;;3.57;;
65035;SDS011;51603;49.300;8.880;2023-08-24T10:30:44;4.57;;;3.50;;
65035;SDS011;51603;49.300;8.880;2023-08-24T10:33:12;6.43;;;3.20;;
65035;SDS011;51603;49.300;8.880;2023-08-24T10:35:39;4.50;;;3.40;;
65035;SDS011;51603;49.300;8.880;2023-08-24T10:38:07;4.50;;;3.40;;
65035;SDS011;51603;49.300;8.880;2023-08-24T10:40:32;4.87;;;3.93;;
65035;SDS011;51603;49.300;8.880;2023-08-24T10:43:02;4.93;;;3.57;;
65035;SDS011;51603;49.300;8.880;2023-08-24T10:48:22;5.30;;;3.17;;
65035;SDS011;51603;49.300;8.880;2023-08-24T10:53:44;7.93;;;3.73;;
65035;SDS011;51603;49.300;8.880;2023-08-24T10:56:11;4.40;;;3.47;;
65035;SDS011;51603;49.300;8.880;2023-08-24T10:58:40;3.57;;;3.23;;
65035;SDS011;51603;49.300;8.880;2023-08-24T11:01:06;4.97;;;3.80;;
65035;SDS011;51603;49.300;8.880;2023-08-24T11:03:32;4.70;;;3.50;;
65035;SDS011;51603;49.300;8.880;2023-08-24T11:05:58;3.90;;;3.03;;
65035;SDS011;51603;49.300;8.880;2023-08-24T11:11:19;9.07;;;4.23;;
65035;SDS011;51603;49.300;8.880;2023-08-24T11:14:28;5.30;;;3.83;;
65035;SDS011;51603;49.300;8.880;2023-08-24T11:16:47;6.50;;;3.23;;
65035;SDS011;51603;49.300;8.880;2023-08-24T11:19:13;3.67;;;3.03;;
65035;SDS011;51603;49.300;8.880;2023-08-24T11:21:41;3.97;;;3.20;;
65035;SDS011;51603;49.300;8.880;2023-08-24T11:24:08;4.33;;;3.33;;
65035;SDS011;51603;49.300;8.880;2023-08-24T11:26:39;3.63;;;3.33;;
65035;SDS011;51603;49.300;8.880;2023-08-24T11:29:08;4.57;;;3.70;;
65035;SDS011;51603;49.300;8.880;2023-08-24T11:31:35;3.97;;;3.50;;
65035;SDS011;51603;49.300;8.880;2023-08-24T11:34:01;5.63;;;4.10;;
65035;SDS011;51603;49.300;8.880;2023-08-24T11:36:28;4.00;;;3.43;;
65035;SDS011;51603;49.300;8.880;2023-08-24T11:38:56;5.63;;;3.63;;
65035;SDS011;51603;49.300;8.880;2023-08-24T11:41:22;5.70;;;3.77;;
65035;SDS011;51603;49.300;8.880;2023-08-24T11:43:48;3.90;;;3.50;;
65035;SDS011;51603;49.300;8.880;2023-08-24T11:46:22;7.47;;;3.47;;
65035;SDS011;51603;49.300;8.880;2023-08-24T11:48:48;4.70;;;3.43;;
65035;SDS011;51603;49.300;8.880;2023-08-24T11:51:13;4.23;;;3.40;;
65035;SDS011;51603;49.300;8.880;2023-08-24T11:53:40;5.23;;;3.47;;
65035;SDS011;51603;49.300;8.880;2023-08-24T11:56:10;5.73;;;3.87;;
65035;SDS011;51603;49.300;8.880;2023-08-24T11:58:37;7.27;;;3.60;;
65035;SDS011;51603;49.300;8.880;2023-08-24T12:01:04;3.60;;;3.30;;
65035;SDS011;51603;49.300;8.880;2023-08-24T12:03:30;4.40;;;3.90;;
65035;SDS011;51603;49.300;8.880;2023-08-24T12:06:02;6.37;;;3.73;;
65035;SDS011;51603;49.300;8.880;2023-08-24T12:08:36;4.70;;;4.13;;
65035;SDS011;51603;49.300;8.880;2023-08-24T12:11:03;5.27;;;4.50;;
65035;SDS011;51603;49.300;8.880;2023-08-24T12:13:34;4.33;;;3.90;;
65035;SDS011;51603;49.300;8.880;2023-08-24T12:16:00;6.20;;;5.00;;
65035;SDS011;51603;49.300;8.880;2023-08-24T12:18:26;4.13;;;3.73;;
65035;SDS011;51603;49.300;8.880;2023-08-24T12:20:52;5.90;;;3.90;;
65035;SDS011;51603;49.300;8.880;2023-08-24T12:23:18;7.23;;;3.93;;
65035;SDS011;51603;49.300;8.880;2023-08-24T12:25:43;7.10;;;4.20;;
65035;SDS011;51603;49.300;8.880;2023-08-24T12:28:10;4.40;;;4.00;;
65035;SDS011;51603;49.300;8.880;2023-08-24T12:30:52;4.53;;;4.13;;
65035;SDS011;51603;49.300;8.880;2023-08-24T12:33:35;4.13;;;3.73;;
65035;SDS011;51603;49.300;8.880;2023-08-24T12:36:01;6.17;;;3.50;;
65035;SDS011;51603;49.300;8.880;2023-08-24T12:38:27;4.53;;;4.00;;
65035;SDS011;51603;49.300;8.880;2023-08-24T12:40:53;5.03;;;3.93;;
65035;SDS011;51603;49.300;8.880;2023-08-24T12:43:18;4.17;;;3.60;;
65035;SDS011;51603;49.300;8.880;2023-08-24T12:45:44;11.60;;;3.73;;
65035;SDS011;51603;49.300;8.880;2023-08-24T12:48:10;4.13;;;3.73;;
65035;SDS011;51603;49.300;8.880;2023-08-24T12:50:36;6.63;;;3.80;;
65035;SDS011;51603;49.300;8.880;2023-08-24T12:53:03;7.73;;;3.80;;
65035;SDS011;51603;49.300;8.880;2023-08-24T12:55:31;6.20;;;4.17;;
65035;SDS011;51603;49.300;8.880;2023-08-24T12:57:57;4.60;;;3.70;;
65035;SDS011;51603;49.300;8.880;2023-08-24T13:00:23;5.33;;;3.60;;
65035;SDS011;51603;49.300;8.880;2023-08-24T13:02:49;4.40;;;4.00;;
65035;SDS011;51603;49.300;8.880;2023-08-24T13:05:15;7.93;;;3.80;;
65035;SDS011;51603;49.300;8.880;2023-08-24T13:07:41;5.53;;;4.00;;
65035;SDS011;51603;49.300;8.880;2023-08-24T13:10:06;5.90;;;3.93;;
65035;SDS011;51603;49.300;8.880;2023-08-24T13:12:32;4.77;;;3.43;;
65035;SDS011;51603;49.300;8.880;2023-08-24T13:14:59;5.63;;;4.10;;
65035;SDS011;51603;49.300;8.880;2023-08-24T13:17:24;4.43;;;3.67;;
65035;SDS011;51603;49.300;8.880;2023-08-24T13:19:50;4.97;;;3.77;;
65035;SDS011;51603;49.300;8.880;2023-08-24T13:22:15;4.13;;;3.60;;
65035;SDS011;51603;49.300;8.880;2023-08-24T13:24:41;6.23;;;4.37;;
65035;SDS011;51603;49.300;8.880;2023-08-24T13:27:08;6.20;;;4.00;;
65035;SDS011;51603;49.300;8.880;2023-08-24T13:29:38;4.23;;;3.83;;
65035;SDS011;51603;49.300;8.880;2023-08-24T13:32:07;7.27;;;4.50;;
65035;SDS011;51603;49.300;8.880;2023-08-24T13:34:33;4.70;;;4.30;;
65035;SDS011;51603;49.300;8.880;2023-08-24T13:36:58;5.30;;;4.60;;
65035;SDS011;51603;49.300;8.880;2023-08-24T13:39:27;4.33;;;3.93;;
65035;SDS011;51603;49.300;8.880;2023-08-24T13:41:57;5.07;;;4.57;;
65035;SDS011;51603;49.300;8.880;2023-08-24T13:44:23;4.60;;;4.17;;
65035;SDS011;51603;49.300;8.880;2023-08-24T13:46:49;4.53;;;3.77;;
65035;SDS011;51603;49.300;8.880;2023-08-24T13:49:16;4.20;;;3.80;;
65035;SDS011;51603;49.300;8.880;2023-08-24T13:51:43;4.90;;;3.40;;
65035;SDS011;51603;49.300;8.880;2023-08-24T13:54:15;9.70;;;5.17;;
65035;SDS011;51603;49.300;8.880;2023-08-24T13:56:43;3.97;;;3.67;;
65035;SDS011;51603;49.300;8.880;2023-08-24T13:59:09;6.00;;;3.90;;
65035;SDS011;51603;49.300;8.880;2023-08-24T14:01:35;6.00;;;3.83;;
65035;SDS011;51603;49.300;8.880;2023-08-24T14:04:01;7.07;;;4.83;;
65035;SDS011;51603;49.300;8.880;2023-08-24T14:06:28;5.03;;;4.50;;
65035;SDS011;51603;49.300;8.880;2023-08-24T14:08:54;4.73;;;4.13;;
65035;SDS011;51603;49.300;8.880;2023-08-24T14:11:21;5.13;;;4.00;;
65035;SDS011;51603;49.300;8.880;2023-08-24T14:13:46;8.30;;;4.47;;
65035;SDS011;51603;49.300;8.880;2023-08-24T14:16:12;5.77;;;4.87;;
65035;SDS011;51603;49.300;8.880;2023-08-24T14:18:37;5.53;;;4.50;;
65035;SDS011;51603;49.300;8.880;2023-08-24T14:21:03;6.77;;;4.90;;
65035;SDS011;51603;49.300;8.880;2023-08-24T14:23:28;6.23;;;4.13;;
65035;SDS011;51603;49.300;8.880;2023-08-24T14:25:54;5.10;;;4.60;;
65035;SDS011;51603;49.300;8.880;2023-08-24T14:28:20;7.23;;;4.90;;
65035;SDS011;51603;49.300;8.880;2023-08-24T14:30:47;8.97;;;5.10;;
65035;SDS011;51603;49.300;8.880;2023-08-24T14:33:16;8.73;;;4.83;;
65035;SDS011;51603;49.300;8.880;2023-08-24T14:35:49;5.33;;;4.50;;
65035;SDS011;51603;49.300;8.880;2023-08-24T14:38:17;6.10;;;5.03;;
65035;SDS011;51603;49.300;8.880;2023-08-24T14:40:43;4.20;;;3.80;;
65035;SDS011;51603;49.300;8.880;2023-08-24T14:43:09;4.50;;;4.10;;
65035;SDS011;51603;49.300;8.880;2023-08-24T14:45:35;7.20;;;4.90;;
65035;SDS011;51603;49.300;8.880;2023-08-24T14:48:00;4.77;;;4.27;;
65035;SDS011;51603;49.300;8.880;2023-08-24T14:50:26;6.10;;;4.73;;
65035;SDS011;51603;49.300;8.880;2023-08-24T14:52:51;5.00;;;4.60;;
65035;SDS011;51603;49.300;8.880;2023-08-24T14:55:17;6.27;;;4.93;;
65035;SDS011;51603;49.300;8.880;2023-08-24T14:57:43;12.77;;;6.07;;
65035;SDS011;51603;49.300;8.880;2023-08-24T15:00:09;17.63;;;8.40;;
65035;SDS011;51603;49.300;8.880;2023-08-24T15:02:35;12.30;;;7.30;;
65035;SDS011;51603;49.300;8.880;2023-08-24T15:05:01;7.93;;;6.13;;
65035;SDS011;51603;49.300;8.880;2023-08-24T15:07:28;8.63;;;7.30;;